sensor_id;sensor_type;location;lat;lon;timestamp;temperature;humidity
32293;DHT22;43233;48.608;8.838;2023-05-16T00:00:08;11.80;86.60
32293;DHT22;43233;48.608;8.838;2023-05-16T00:02:35;11.80;86.80
32293;DHT22;43233;48.608;8.838;2023-05-16T00:05:04;11.70;87.90
32293;DHT22;43233;48.608;8.838;2023-05-16T00:07:32;11.60;88.20
32293;DHT22;43233;48.608;8.838;2023-05-16T00:09:58;11.60;87.90
32293;DHT22;43233;48.608;8.838;2023-05-16T00:12:24;11.70;88.10
32293;DHT22;43233;48.608;8.838;2023-05-16T00:14:50;11.70;88.10
32293;DHT22;43233;48.608;8.838;2023-05-16T00:17:16;11.80;87.80
32293;DHT22;43233;48.608;8.838;2023-05-16T00:19:45;11.80;87.60
32293;DHT22;43233;48.608;8.838;2023-05-16T00:22:14;11.80;87.20
32293;DHT22;43233;48.608;8.838;2023-05-16T00:24:40;11.70;86.60
32293;DHT22;43233;48.608;8.838;2023-05-16T00:27:06;11.70;87.10
32293;DHT22;43233;48.608;8.838;2023-05-16T00:29:34;11.70;87.30
32293;DHT22;43233;48.608;8.838;2023-05-16T00:31:59;11.60;87.60
32293;DHT22;43233;48.608;8.838;2023-05-16T00:34:25;11.60;87.60
32293;DHT22;43233;48.608;8.838;2023-05-16T00:36:51;11.60;86.90
32293;DHT22;43233;48.608;8.838;2023-05-16T00:39:17;11.70;86.70
32293;DHT22;43233;48.608;8.838;2023-05-16T00:41:43;11.70;85.50
32293;DHT22;43233;48.608;8.838;2023-05-16T00:44:10;11.70;85.20
32293;DHT22;43233;48.608;8.838;2023-05-16T00:46:35;11.70;84.60
32293;DHT22;43233;48.608;8.838;2023-05-16T00:49:02;11.70;84.30
32293;DHT22;43233;48.608;8.838;2023-05-16T00:51:28;11.80;83.60
32293;DHT22;43233;48.608;8.838;2023-05-16T00:53:54;11.80;83.50
32293;DHT22;43233;48.608;8.838;2023-05-16T00:56:21;11.70;83.80
32293;DHT22;43233;48.608;8.838;2023-05-16T00:58:47;11.80;83.20
32293;DHT22;43233;48.608;8.838;2023-05-16T01:01:14;11.70;83.60
32293;DHT22;43233;48.608;8.838;2023-05-16T01:03:41;11.70;83.40
32293;DHT22;43233;48.608;8.838;2023-05-16T01:06:11;11.70;83.20
32293;DHT22;43233;48.608;8.838;2023-05-16T01:08:37;11.80;82.90
32293;DHT22;43233;48.608;8.838;2023-05-16T01:22:12;11.60;82.80
32293;DHT22;43233;48.608;8.838;2023-05-16T01:27:16;11.50;83.40
32293;DHT22;43233;48.608;8.838;2023-05-16T01:29:41;11.50;84.10
32293;DHT22;43233;48.608;8.838;2023-05-16T01:32:07;11.40;83.80
32293;DHT22;43233;48.608;8.838;2023-05-16T01:34:32;11.40;84.20
32293;DHT22;43233;48.608;8.838;2023-05-16T01:37:13;11.40;84.00
32293;DHT22;43233;48.608;8.838;2023-05-16T01:39:48;11.30;84.30
32293;DHT22;43233;48.608;8.838;2023-05-16T01:42:18;11.30;84.40
32293;DHT22;43233;48.608;8.838;2023-05-16T01:44:47;11.20;84.40
32293;DHT22;43233;48.608;8.838;2023-05-16T01:47:16;11.30;84.40
32293;DHT22;43233;48.608;8.838;2023-05-16T01:50:00;11.20;83.80
32293;DHT22;43233;48.608;8.838;2023-05-16T01:52:39;11.30;83.80
32293;DHT22;43233;48.608;8.838;2023-05-16T01:55:10;11.30;83.20
32293;DHT22;43233;48.608;8.838;2023-05-16T01:57:40;11.30;83.20
32293;DHT22;43233;48.608;8.838;2023-05-16T02:00:07;11.30;83.20
32293;DHT22;43233;48.608;8.838;2023-05-16T02:02:33;11.20;83.30
32293;DHT22;43233;48.608;8.838;2023-05-16T02:04:58;11.20;83.60
32293;DHT22;43233;48.608;8.838;2023-05-16T02:07:24;11.10;83.70
32293;DHT22;43233;48.608;8.838;2023-05-16T02:09:49;11.10;84.00
32293;DHT22;43233;48.608;8.838;2023-05-16T02:12:15;11.20;83.50
32293;DHT22;43233;48.608;8.838;2023-05-16T02:14:41;11.20;83.50
32293;DHT22;43233;48.608;8.838;2023-05-16T02:17:06;11.20;83.60
32293;DHT22;43233;48.608;8.838;2023-05-16T02:19:32;11.30;83.00
32293;DHT22;43233;48.608;8.838;2023-05-16T02:21:58;11.30;82.70
32293;DHT22;43233;48.608;8.838;2023-05-16T02:24:23;11.30;82.40
32293;DHT22;43233;48.608;8.838;2023-05-16T02:26:49;11.20;82.50
32293;DHT22;43233;48.608;8.838;2023-05-16T02:29:14;11.10;83.10
32293;DHT22;43233;48.608;8.838;2023-05-16T02:31:41;11.10;83.80
32293;DHT22;43233;48.608;8.838;2023-05-16T02:34:07;11.10;84.20
32293;DHT22;43233;48.608;8.838;2023-05-16T02:36:33;11.10;84.20
32293;DHT22;43233;48.608;8.838;2023-05-16T02:39:01;11.00;84.70
32293;DHT22;43233;48.608;8.838;2023-05-16T02:41:27;11.10;84.50
32293;DHT22;43233;48.608;8.838;2023-05-16T02:43:52;11.10;84.20
32293;DHT22;43233;48.608;8.838;2023-05-16T02:46:32;11.10;84.80
32293;DHT22;43233;48.608;8.838;2023-05-16T02:48:59;11.10;85.10
32293;DHT22;43233;48.608;8.838;2023-05-16T02:51:26;11.10;84.90
32293;DHT22;43233;48.608;8.838;2023-05-16T02:53:53;11.00;85.60
32293;DHT22;43233;48.608;8.838;2023-05-16T02:56:20;11.00;86.00
32293;DHT22;43233;48.608;8.838;2023-05-16T02:58:47;11.00;87.30
32293;DHT22;43233;48.608;8.838;2023-05-16T03:01:14;11.00;86.40
32293;DHT22;43233;48.608;8.838;2023-05-16T03:03:40;11.00;86.20
32293;DHT22;43233;48.608;8.838;2023-05-16T03:06:06;10.90;87.00
32293;DHT22;43233;48.608;8.838;2023-05-16T03:08:32;11.00;86.90
32293;DHT22;43233;48.608;8.838;2023-05-16T03:10:57;10.90;87.20
32293;DHT22;43233;48.608;8.838;2023-05-16T03:13:23;10.90;87.70
32293;DHT22;43233;48.608;8.838;2023-05-16T03:15:49;11.00;87.30
32293;DHT22;43233;48.608;8.838;2023-05-16T03:18:15;11.00;87.60
32293;DHT22;43233;48.608;8.838;2023-05-16T03:20:40;10.90;88.00
32293;DHT22;43233;48.608;8.838;2023-05-16T03:23:06;10.80;88.60
32293;DHT22;43233;48.608;8.838;2023-05-16T03:25:36;10.80;89.00
32293;DHT22;43233;48.608;8.838;2023-05-16T03:28:06;10.90;89.40
32293;DHT22;43233;48.608;8.838;2023-05-16T03:30:32;10.90;88.70
32293;DHT22;43233;48.608;8.838;2023-05-16T03:32:58;10.90;88.60
32293;DHT22;43233;48.608;8.838;2023-05-16T03:35:24;10.90;88.90
32293;DHT22;43233;48.608;8.838;2023-05-16T03:37:50;10.90;89.00
32293;DHT22;43233;48.608;8.838;2023-05-16T03:40:15;10.90;89.20
32293;DHT22;43233;48.608;8.838;2023-05-16T03:42:41;10.80;89.10
32293;DHT22;43233;48.608;8.838;2023-05-16T03:45:07;10.80;89.60
32293;DHT22;43233;48.608;8.838;2023-05-16T03:47:33;10.90;89.20
32293;DHT22;43233;48.608;8.838;2023-05-16T03:49:58;10.90;89.00
32293;DHT22;43233;48.608;8.838;2023-05-16T03:52:24;11.00;88.80
32293;DHT22;43233;48.608;8.838;2023-05-16T03:54:50;10.90;89.00
32293;DHT22;43233;48.608;8.838;2023-05-16T03:57:15;10.90;89.50
32293;DHT22;43233;48.608;8.838;2023-05-16T03:59:41;10.90;89.70
32293;DHT22;43233;48.608;8.838;2023-05-16T04:02:07;10.90;90.10
32293;DHT22;43233;48.608;8.838;2023-05-16T04:04:32;10.90;89.90
32293;DHT22;43233;48.608;8.838;2023-05-16T04:06:58;11.00;89.80
32293;DHT22;43233;48.608;8.838;2023-05-16T04:09:23;10.90;90.30
32293;DHT22;43233;48.608;8.838;2023-05-16T04:11:49;10.80;91.00
32293;DHT22;43233;48.608;8.838;2023-05-16T04:14:16;10.80;91.00
32293;DHT22;43233;48.608;8.838;2023-05-16T04:16:41;10.90;90.80
32293;DHT22;43233;48.608;8.838;2023-05-16T04:19:07;10.90;90.70
32293;DHT22;43233;48.608;8.838;2023-05-16T04:21:33;10.90;91.30
32293;DHT22;43233;48.608;8.838;2023-05-16T04:24:00;10.80;91.60
32293;DHT22;43233;48.608;8.838;2023-05-16T04:26:26;10.80;92.00
32293;DHT22;43233;48.608;8.838;2023-05-16T04:28:52;10.80;92.60
32293;DHT22;43233;48.608;8.838;2023-05-16T04:31:17;10.80;92.80
32293;DHT22;43233;48.608;8.838;2023-05-16T04:33:43;10.80;92.80
32293;DHT22;43233;48.608;8.838;2023-05-16T04:36:09;10.80;92.90
32293;DHT22;43233;48.608;8.838;2023-05-16T04:38:34;10.80;92.70
32293;DHT22;43233;48.608;8.838;2023-05-16T04:41:00;10.80;92.30
32293;DHT22;43233;48.608;8.838;2023-05-16T04:43:26;10.80;92.40
32293;DHT22;43233;48.608;8.838;2023-05-16T04:45:52;10.90;92.40
32293;DHT22;43233;48.608;8.838;2023-05-16T04:48:18;10.80;92.20
32293;DHT22;43233;48.608;8.838;2023-05-16T04:50:44;10.90;92.60
32293;DHT22;43233;48.608;8.838;2023-05-16T04:53:10;10.90;92.10
32293;DHT22;43233;48.608;8.838;2023-05-16T04:55:35;11.00;91.90
32293;DHT22;43233;48.608;8.838;2023-05-16T04:58:01;11.10;91.40
32293;DHT22;43233;48.608;8.838;2023-05-16T05:00:27;11.00;90.70
32293;DHT22;43233;48.608;8.838;2023-05-16T05:02:52;11.00;90.70
32293;DHT22;43233;48.608;8.838;2023-05-16T05:05:18;11.10;91.10
32293;DHT22;43233;48.608;8.838;2023-05-16T05:07:44;11.00;91.20
32293;DHT22;43233;48.608;8.838;2023-05-16T05:10:10;11.00;91.20
32293;DHT22;43233;48.608;8.838;2023-05-16T05:12:36;11.10;91.40
32293;DHT22;43233;48.608;8.838;2023-05-16T05:15:02;11.10;90.90
32293;DHT22;43233;48.608;8.838;2023-05-16T05:17:28;11.10;91.00
32293;DHT22;43233;48.608;8.838;2023-05-16T05:19:54;11.10;90.90
32293;DHT22;43233;48.608;8.838;2023-05-16T05:22:19;11.20;91.00
32293;DHT22;43233;48.608;8.838;2023-05-16T05:24:45;11.20;90.90
32293;DHT22;43233;48.608;8.838;2023-05-16T05:27:11;11.20;91.80
32293;DHT22;43233;48.608;8.838;2023-05-16T05:29:37;11.20;91.50
32293;DHT22;43233;48.608;8.838;2023-05-16T05:32:03;11.10;91.50
32293;DHT22;43233;48.608;8.838;2023-05-16T05:34:29;11.10;91.60
32293;DHT22;43233;48.608;8.838;2023-05-16T05:36:55;11.10;92.20
32293;DHT22;43233;48.608;8.838;2023-05-16T05:39:21;11.10;92.40
32293;DHT22;43233;48.608;8.838;2023-05-16T05:41:46;11.10;91.70
32293;DHT22;43233;48.608;8.838;2023-05-16T05:44:12;11.20;92.00
32293;DHT22;43233;48.608;8.838;2023-05-16T05:46:38;11.20;91.70
32293;DHT22;43233;48.608;8.838;2023-05-16T05:49:04;11.20;92.30
32293;DHT22;43233;48.608;8.838;2023-05-16T05:51:30;11.30;92.00
32293;DHT22;43233;48.608;8.838;2023-05-16T05:53:55;11.20;91.10
32293;DHT22;43233;48.608;8.838;2023-05-16T05:56:21;11.20;92.00
32293;DHT22;43233;48.608;8.838;2023-05-16T05:58:49;11.20;91.90
32293;DHT22;43233;48.608;8.838;2023-05-16T06:01:15;11.20;92.20
32293;DHT22;43233;48.608;8.838;2023-05-16T06:03:41;11.30;91.90
32293;DHT22;43233;48.608;8.838;2023-05-16T06:06:07;11.30;91.30
32293;DHT22;43233;48.608;8.838;2023-05-16T06:08:33;11.30;91.50
32293;DHT22;43233;48.608;8.838;2023-05-16T06:10:59;11.30;91.70
32293;DHT22;43233;48.608;8.838;2023-05-16T06:13:25;11.30;91.90
32293;DHT22;43233;48.608;8.838;2023-05-16T06:15:51;11.30;91.60
32293;DHT22;43233;48.608;8.838;2023-05-16T06:18:17;11.30;91.50
32293;DHT22;43233;48.608;8.838;2023-05-16T06:20:43;11.40;90.80
32293;DHT22;43233;48.608;8.838;2023-05-16T06:23:08;11.40;90.30
32293;DHT22;43233;48.608;8.838;2023-05-16T06:25:34;11.30;91.50
32293;DHT22;43233;48.608;8.838;2023-05-16T06:27:59;11.30;91.30
32293;DHT22;43233;48.608;8.838;2023-05-16T06:30:25;11.20;91.30
32293;DHT22;43233;48.608;8.838;2023-05-16T06:32:50;11.10;91.50
32293;DHT22;43233;48.608;8.838;2023-05-16T06:35:16;11.10;92.30
32293;DHT22;43233;48.608;8.838;2023-05-16T06:37:42;11.10;92.50
32293;DHT22;43233;48.608;8.838;2023-05-16T06:40:08;11.00;92.10
32293;DHT22;43233;48.608;8.838;2023-05-16T06:42:33;11.00;92.90
32293;DHT22;43233;48.608;8.838;2023-05-16T06:44:59;11.00;93.50
32293;DHT22;43233;48.608;8.838;2023-05-16T06:47:24;11.00;93.50
32293;DHT22;43233;48.608;8.838;2023-05-16T06:49:50;11.00;94.50
32293;DHT22;43233;48.608;8.838;2023-05-16T06:52:16;11.00;93.50
32293;DHT22;43233;48.608;8.838;2023-05-16T06:54:42;10.80;93.70
32293;DHT22;43233;48.608;8.838;2023-05-16T06:57:07;10.80;94.50
32293;DHT22;43233;48.608;8.838;2023-05-16T06:59:34;10.70;95.40
32293;DHT22;43233;48.608;8.838;2023-05-16T07:02:00;10.70;95.70
32293;DHT22;43233;48.608;8.838;2023-05-16T07:04:26;10.80;95.20
32293;DHT22;43233;48.608;8.838;2023-05-16T07:06:52;10.80;94.90
32293;DHT22;43233;48.608;8.838;2023-05-16T07:09:18;10.80;94.10
32293;DHT22;43233;48.608;8.838;2023-05-16T07:11:44;10.90;93.90
32293;DHT22;43233;48.608;8.838;2023-05-16T07:14:09;10.90;94.00
32293;DHT22;43233;48.608;8.838;2023-05-16T07:16:35;10.80;93.80
32293;DHT22;43233;48.608;8.838;2023-05-16T07:19:01;10.80;94.00
32293;DHT22;43233;48.608;8.838;2023-05-16T07:21:26;10.80;94.00
32293;DHT22;43233;48.608;8.838;2023-05-16T07:23:52;10.80;94.00
32293;DHT22;43233;48.608;8.838;2023-05-16T07:26:18;10.90;93.50
32293;DHT22;43233;48.608;8.838;2023-05-16T07:28:46;10.90;92.80
32293;DHT22;43233;48.608;8.838;2023-05-16T07:31:12;11.00;92.40
32293;DHT22;43233;48.608;8.838;2023-05-16T07:33:37;11.00;92.00
32293;DHT22;43233;48.608;8.838;2023-05-16T07:36:03;11.00;91.80
32293;DHT22;43233;48.608;8.838;2023-05-16T07:38:29;10.90;91.50
32293;DHT22;43233;48.608;8.838;2023-05-16T07:40:55;10.90;91.50
32293;DHT22;43233;48.608;8.838;2023-05-16T07:43:20;11.00;91.70
32293;DHT22;43233;48.608;8.838;2023-05-16T07:45:46;10.90;91.60
32293;DHT22;43233;48.608;8.838;2023-05-16T07:48:12;10.90;92.10
32293;DHT22;43233;48.608;8.838;2023-05-16T07:50:37;10.90;91.50
32293;DHT22;43233;48.608;8.838;2023-05-16T07:53:03;11.00;91.80
32293;DHT22;43233;48.608;8.838;2023-05-16T07:55:28;11.00;91.10
32293;DHT22;43233;48.608;8.838;2023-05-16T07:57:54;11.00;91.30
32293;DHT22;43233;48.608;8.838;2023-05-16T08:00:20;11.00;90.30
32293;DHT22;43233;48.608;8.838;2023-05-16T08:02:46;11.00;90.30
32293;DHT22;43233;48.608;8.838;2023-05-16T08:05:11;11.00;90.50
32293;DHT22;43233;48.608;8.838;2023-05-16T08:07:37;10.90;91.60
32293;DHT22;43233;48.608;8.838;2023-05-16T08:10:03;10.90;92.00
32293;DHT22;43233;48.608;8.838;2023-05-16T08:12:29;10.90;91.90
32293;DHT22;43233;48.608;8.838;2023-05-16T08:14:55;10.90;91.80
32293;DHT22;43233;48.608;8.838;2023-05-16T08:17:21;10.90;91.50
32293;DHT22;43233;48.608;8.838;2023-05-16T08:19:46;10.80;91.80
32293;DHT22;43233;48.608;8.838;2023-05-16T08:22:12;10.80;93.20
32293;DHT22;43233;48.608;8.838;2023-05-16T08:24:38;10.70;93.20
32293;DHT22;43233;48.608;8.838;2023-05-16T08:27:03;10.80;93.00
32293;DHT22;43233;48.608;8.838;2023-05-16T08:29:29;10.90;93.30
32293;DHT22;43233;48.608;8.838;2023-05-16T08:31:56;10.80;93.00
32293;DHT22;43233;48.608;8.838;2023-05-16T08:34:21;10.90;93.20
32293;DHT22;43233;48.608;8.838;2023-05-16T08:36:47;10.90;93.20
32293;DHT22;43233;48.608;8.838;2023-05-16T08:39:13;10.90;93.30
32293;DHT22;43233;48.608;8.838;2023-05-16T08:41:39;11.00;92.10
32293;DHT22;43233;48.608;8.838;2023-05-16T08:44:05;11.00;92.10
32293;DHT22;43233;48.608;8.838;2023-05-16T08:46:32;10.90;93.10
32293;DHT22;43233;48.608;8.838;2023-05-16T08:49:00;10.90;93.30
32293;DHT22;43233;48.608;8.838;2023-05-16T08:51:28;10.90;93.40
32293;DHT22;43233;48.608;8.838;2023-05-16T08:53:59;11.00;93.00
32293;DHT22;43233;48.608;8.838;2023-05-16T08:56:27;11.00;92.90
32293;DHT22;43233;48.608;8.838;2023-05-16T08:58:54;11.00;93.00
32293;DHT22;43233;48.608;8.838;2023-05-16T09:01:21;11.00;93.80
32293;DHT22;43233;48.608;8.838;2023-05-16T09:03:51;11.10;94.40
32293;DHT22;43233;48.608;8.838;2023-05-16T09:06:17;11.10;92.10
32293;DHT22;43233;48.608;8.838;2023-05-16T09:08:43;11.20;91.90
32293;DHT22;43233;48.608;8.838;2023-05-16T09:11:08;11.20;91.20
32293;DHT22;43233;48.608;8.838;2023-05-16T09:13:34;11.10;91.20
32293;DHT22;43233;48.608;8.838;2023-05-16T09:16:19;11.20;91.40
32293;DHT22;43233;48.608;8.838;2023-05-16T09:18:53;11.20;91.50
32293;DHT22;43233;48.608;8.838;2023-05-16T09:21:22;11.20;91.90
32293;DHT22;43233;48.608;8.838;2023-05-16T09:23:48;11.20;90.90
32293;DHT22;43233;48.608;8.838;2023-05-16T09:26:15;11.20;91.20
32293;DHT22;43233;48.608;8.838;2023-05-16T09:28:41;11.20;91.40
32293;DHT22;43233;48.608;8.838;2023-05-16T09:31:23;11.20;92.00
32293;DHT22;43233;48.608;8.838;2023-05-16T09:33:54;11.30;91.80
32293;DHT22;43233;48.608;8.838;2023-05-16T09:36:20;11.40;91.30
32293;DHT22;43233;48.608;8.838;2023-05-16T09:38:46;11.40;91.30
32293;DHT22;43233;48.608;8.838;2023-05-16T09:41:12;11.40;92.00
32293;DHT22;43233;48.608;8.838;2023-05-16T09:43:41;11.40;91.90
32293;DHT22;43233;48.608;8.838;2023-05-16T09:46:11;11.50;90.30
32293;DHT22;43233;48.608;8.838;2023-05-16T09:48:46;11.50;90.50
32293;DHT22;43233;48.608;8.838;2023-05-16T09:51:12;11.60;91.10
32293;DHT22;43233;48.608;8.838;2023-05-16T09:53:39;11.70;90.40
32293;DHT22;43233;48.608;8.838;2023-05-16T09:56:15;11.70;89.40
32293;DHT22;43233;48.608;8.838;2023-05-16T09:58:42;11.70;89.20
32293;DHT22;43233;48.608;8.838;2023-05-16T10:01:09;11.80;89.70
32293;DHT22;43233;48.608;8.838;2023-05-16T10:03:36;12.00;89.40
32293;DHT22;43233;48.608;8.838;2023-05-16T10:06:04;12.00;88.20
32293;DHT22;43233;48.608;8.838;2023-05-16T10:08:31;11.90;87.50
32293;DHT22;43233;48.608;8.838;2023-05-16T10:11:01;11.80;88.60
32293;DHT22;43233;48.608;8.838;2023-05-16T10:13:34;11.90;88.00
32293;DHT22;43233;48.608;8.838;2023-05-16T10:16:11;12.00;87.50
32293;DHT22;43233;48.608;8.838;2023-05-16T10:18:38;12.00;87.50
32293;DHT22;43233;48.608;8.838;2023-05-16T10:21:07;12.00;85.30
32293;DHT22;43233;48.608;8.838;2023-05-16T10:23:33;11.90;86.70
32293;DHT22;43233;48.608;8.838;2023-05-16T10:26:02;12.00;87.40
32293;DHT22;43233;48.608;8.838;2023-05-16T10:28:28;12.10;86.50
32293;DHT22;43233;48.608;8.838;2023-05-16T10:30:54;12.00;86.00
32293;DHT22;43233;48.608;8.838;2023-05-16T10:33:20;12.00;86.20
32293;DHT22;43233;48.608;8.838;2023-05-16T10:35:46;12.10;86.70
32293;DHT22;43233;48.608;8.838;2023-05-16T10:38:15;12.20;86.40
32293;DHT22;43233;48.608;8.838;2023-05-16T10:40:42;12.30;85.80
32293;DHT22;43233;48.608;8.838;2023-05-16T10:43:08;12.40;84.60
32293;DHT22;43233;48.608;8.838;2023-05-16T10:45:42;12.30;85.50
32293;DHT22;43233;48.608;8.838;2023-05-16T10:48:11;12.20;84.00
32293;DHT22;43233;48.608;8.838;2023-05-16T10:50:44;12.10;84.30
32293;DHT22;43233;48.608;8.838;2023-05-16T10:56:07;12.00;84.10
32293;DHT22;43233;48.608;8.838;2023-05-16T11:01:31;11.80;85.10
32293;DHT22;43233;48.608;8.838;2023-05-16T11:06:28;11.50;87.30
32293;DHT22;43233;48.608;8.838;2023-05-16T11:16:51;11.10;89.40
32293;DHT22;43233;48.608;8.838;2023-05-16T11:19:46;11.10;89.60
32293;DHT22;43233;48.608;8.838;2023-05-16T11:25:05;11.10;89.00
32293;DHT22;43233;48.608;8.838;2023-05-16T11:27:33;11.30;89.00
32293;DHT22;43233;48.608;8.838;2023-05-16T11:32:33;11.40;87.20
32293;DHT22;43233;48.608;8.838;2023-05-16T11:34:59;11.50;86.50
32293;DHT22;43233;48.608;8.838;2023-05-16T11:37:26;11.60;85.40
32293;DHT22;43233;48.608;8.838;2023-05-16T11:39:52;11.70;85.90
32293;DHT22;43233;48.608;8.838;2023-05-16T11:42:18;11.70;85.00
32293;DHT22;43233;48.608;8.838;2023-05-16T11:44:45;11.60;84.60
32293;DHT22;43233;48.608;8.838;2023-05-16T11:47:11;11.70;84.60
32293;DHT22;43233;48.608;8.838;2023-05-16T11:49:37;11.60;84.70
32293;DHT22;43233;48.608;8.838;2023-05-16T11:52:04;11.60;83.70
32293;DHT22;43233;48.608;8.838;2023-05-16T11:54:30;11.60;84.20
32293;DHT22;43233;48.608;8.838;2023-05-16T11:56:56;11.60;86.00
32293;DHT22;43233;48.608;8.838;2023-05-16T11:59:23;11.70;84.80
32293;DHT22;43233;48.608;8.838;2023-05-16T12:01:49;11.80;83.60
32293;DHT22;43233;48.608;8.838;2023-05-16T12:04:16;11.90;84.30
32293;DHT22;43233;48.608;8.838;2023-05-16T12:06:42;12.00;83.20
32293;DHT22;43233;48.608;8.838;2023-05-16T12:09:15;12.00;80.70
32293;DHT22;43233;48.608;8.838;2023-05-16T12:11:41;12.00;80.70
32293;DHT22;43233;48.608;8.838;2023-05-16T12:14:10;12.10;80.30
32293;DHT22;43233;48.608;8.838;2023-05-16T12:16:37;12.00;79.80
32293;DHT22;43233;48.608;8.838;2023-05-16T12:19:06;11.90;81.60
32293;DHT22;43233;48.608;8.838;2023-05-16T12:21:33;11.90;79.60
32293;DHT22;43233;48.608;8.838;2023-05-16T12:23:58;11.80;79.50
32293;DHT22;43233;48.608;8.838;2023-05-16T12:26:25;11.80;78.20
32293;DHT22;43233;48.608;8.838;2023-05-16T12:28:55;11.70;79.80
32293;DHT22;43233;48.608;8.838;2023-05-16T12:31:22;11.60;80.30
32293;DHT22;43233;48.608;8.838;2023-05-16T12:33:52;11.50;81.10
32293;DHT22;43233;48.608;8.838;2023-05-16T12:36:18;11.40;80.60
32293;DHT22;43233;48.608;8.838;2023-05-16T12:38:47;11.30;82.00
32293;DHT22;43233;48.608;8.838;2023-05-16T12:41:22;11.20;82.00
32293;DHT22;43233;48.608;8.838;2023-05-16T12:43:48;11.10;82.20
32293;DHT22;43233;48.608;8.838;2023-05-16T12:46:14;11.00;82.60
32293;DHT22;43233;48.608;8.838;2023-05-16T12:48:40;10.80;83.70
32293;DHT22;43233;48.608;8.838;2023-05-16T12:51:11;10.80;83.70
32293;DHT22;43233;48.608;8.838;2023-05-16T12:53:45;10.90;83.20
32293;DHT22;43233;48.608;8.838;2023-05-16T12:56:12;10.90;83.10
32293;DHT22;43233;48.608;8.838;2023-05-16T12:58:38;11.00;83.00
32293;DHT22;43233;48.608;8.838;2023-05-16T13:01:04;11.00;81.50
32293;DHT22;43233;48.608;8.838;2023-05-16T13:03:31;11.10;81.40
32293;DHT22;43233;48.608;8.838;2023-05-16T13:05:57;11.10;80.70
32293;DHT22;43233;48.608;8.838;2023-05-16T13:08:23;10.90;80.80
32293;DHT22;43233;48.608;8.838;2023-05-16T13:10:49;10.90;81.30
32293;DHT22;43233;48.608;8.838;2023-05-16T13:13:15;10.90;81.50
32293;DHT22;43233;48.608;8.838;2023-05-16T13:15:41;10.90;81.50
32293;DHT22;43233;48.608;8.838;2023-05-16T13:18:07;10.90;80.40
32293;DHT22;43233;48.608;8.838;2023-05-16T13:20:32;10.90;81.10
32293;DHT22;43233;48.608;8.838;2023-05-16T13:22:58;11.00;80.40
32293;DHT22;43233;48.608;8.838;2023-05-16T13:25:24;11.00;80.80
32293;DHT22;43233;48.608;8.838;2023-05-16T13:27:49;11.10;79.70
32293;DHT22;43233;48.608;8.838;2023-05-16T13:30:15;11.00;79.20
32293;DHT22;43233;48.608;8.838;2023-05-16T13:32:41;11.00;79.90
32293;DHT22;43233;48.608;8.838;2023-05-16T13:35:07;10.90;79.80
32293;DHT22;43233;48.608;8.838;2023-05-16T13:37:34;10.80;80.80
32293;DHT22;43233;48.608;8.838;2023-05-16T13:40:00;10.90;79.90
32293;DHT22;43233;48.608;8.838;2023-05-16T13:42:26;10.90;79.80
32293;DHT22;43233;48.608;8.838;2023-05-16T13:44:51;10.90;79.40
32293;DHT22;43233;48.608;8.838;2023-05-16T13:47:17;10.90;80.10
32293;DHT22;43233;48.608;8.838;2023-05-16T13:49:43;10.90;79.10
32293;DHT22;43233;48.608;8.838;2023-05-16T13:52:08;10.80;78.50
32293;DHT22;43233;48.608;8.838;2023-05-16T13:54:34;10.80;79.50
32293;DHT22;43233;48.608;8.838;2023-05-16T13:57:00;10.90;79.30
32293;DHT22;43233;48.608;8.838;2023-05-16T13:59:26;10.90;79.60
32293;DHT22;43233;48.608;8.838;2023-05-16T14:01:52;10.90;78.50
32293;DHT22;43233;48.608;8.838;2023-05-16T14:04:17;11.00;78.60
32293;DHT22;43233;48.608;8.838;2023-05-16T14:06:43;11.00;78.10
32293;DHT22;43233;48.608;8.838;2023-05-16T14:09:09;11.00;77.80
32293;DHT22;43233;48.608;8.838;2023-05-16T14:11:35;11.10;78.80
32293;DHT22;43233;48.608;8.838;2023-05-16T14:14:00;11.20;78.90
32293;DHT22;43233;48.608;8.838;2023-05-16T14:16:26;11.20;78.20
32293;DHT22;43233;48.608;8.838;2023-05-16T14:18:51;11.30;77.60
32293;DHT22;43233;48.608;8.838;2023-05-16T14:21:17;11.30;77.30
32293;DHT22;43233;48.608;8.838;2023-05-16T14:23:44;11.30;77.20
32293;DHT22;43233;48.608;8.838;2023-05-16T14:26:09;11.40;76.60
32293;DHT22;43233;48.608;8.838;2023-05-16T14:28:35;11.40;75.50
32293;DHT22;43233;48.608;8.838;2023-05-16T14:31:01;11.40;76.10
32293;DHT22;43233;48.608;8.838;2023-05-16T14:33:27;11.40;75.70
32293;DHT22;43233;48.608;8.838;2023-05-16T14:35:52;11.30;75.70
32293;DHT22;43233;48.608;8.838;2023-05-16T14:38:18;11.40;75.90
32293;DHT22;43233;48.608;8.838;2023-05-16T14:40:44;11.40;75.10
32293;DHT22;43233;48.608;8.838;2023-05-16T14:43:09;11.40;74.40
32293;DHT22;43233;48.608;8.838;2023-05-16T14:45:36;11.50;74.50
32293;DHT22;43233;48.608;8.838;2023-05-16T14:48:02;11.60;72.90
32293;DHT22;43233;48.608;8.838;2023-05-16T14:50:28;11.50;73.10
32293;DHT22;43233;48.608;8.838;2023-05-16T14:52:53;11.60;73.60
32293;DHT22;43233;48.608;8.838;2023-05-16T14:55:20;11.60;73.70
32293;DHT22;43233;48.608;8.838;2023-05-16T14:57:46;11.70;73.80
32293;DHT22;43233;48.608;8.838;2023-05-16T15:00:14;11.70;73.40
32293;DHT22;43233;48.608;8.838;2023-05-16T15:02:41;11.60;73.00
32293;DHT22;43233;48.608;8.838;2023-05-16T15:05:07;11.50;73.00
32293;DHT22;43233;48.608;8.838;2023-05-16T15:07:32;11.60;73.50
32293;DHT22;43233;48.608;8.838;2023-05-16T15:09:58;11.70;73.90
32293;DHT22;43233;48.608;8.838;2023-05-16T15:12:24;11.50;74.10
32293;DHT22;43233;48.608;8.838;2023-05-16T15:14:49;11.40;75.10
32293;DHT22;43233;48.608;8.838;2023-05-16T15:17:15;11.30;75.80
32293;DHT22;43233;48.608;8.838;2023-05-16T15:19:40;11.20;75.30
32293;DHT22;43233;48.608;8.838;2023-05-16T15:22:06;11.20;75.80
32293;DHT22;43233;48.608;8.838;2023-05-16T15:24:33;11.30;76.40
32293;DHT22;43233;48.608;8.838;2023-05-16T15:26:59;11.20;74.80
32293;DHT22;43233;48.608;8.838;2023-05-16T15:29:26;11.10;75.10
32293;DHT22;43233;48.608;8.838;2023-05-16T15:31:51;11.20;75.90
32293;DHT22;43233;48.608;8.838;2023-05-16T15:34:17;11.10;75.70
32293;DHT22;43233;48.608;8.838;2023-05-16T15:36:42;11.10;75.70
32293;DHT22;43233;48.608;8.838;2023-05-16T15:39:08;11.20;75.70
32293;DHT22;43233;48.608;8.838;2023-05-16T15:41:33;11.10;75.30
32293;DHT22;43233;48.608;8.838;2023-05-16T15:43:59;11.10;74.80
32293;DHT22;43233;48.608;8.838;2023-05-16T15:46:25;11.10;74.70
32293;DHT22;43233;48.608;8.838;2023-05-16T15:48:51;11.00;75.80
32293;DHT22;43233;48.608;8.838;2023-05-16T15:51:16;11.00;74.40
32293;DHT22;43233;48.608;8.838;2023-05-16T15:53:42;11.10;74.80
32293;DHT22;43233;48.608;8.838;2023-05-16T15:56:09;11.20;74.60
32293;DHT22;43233;48.608;8.838;2023-05-16T15:58:35;11.20;73.80
32293;DHT22;43233;48.608;8.838;2023-05-16T16:01:01;11.30;72.30